Index of /20260418/WXO-DD/model_rdps/10km/00/000
Name Last modified Size Description
Parent Directory -
20260418T00Z_MSC_RDPS_AbsoluteVorticity_IsbL-0250_RLatLon0.09_PT000H.grib2 2026-04-18 02:40 534K
20260418T00Z_MSC_RDPS_AbsoluteVorticity_IsbL-0500_RLatLon0.09_PT000H.grib2 2026-04-18 02:40 483K
20260418T00Z_MSC_RDPS_AbsoluteVorticity_IsbL-0700_RLatLon0.09_PT000H.grib2 2026-04-18 02:40 646K
20260418T00Z_MSC_RDPS_AbsoluteVorticity_IsbL-0850_RLatLon0.09_PT000H.grib2 2026-04-18 02:40 660K
20260418T00Z_MSC_RDPS_AirTemp_AGL-120m_RLatLon0.09_PT000H.grib2 2026-04-18 02:40 366K
20260418T00Z_MSC_RDPS_AirTemp_AGL-2m_RLatLon0.09_PT000H.grib2 2026-04-18 02:40 517K
20260418T00Z_MSC_RDPS_AirTemp_AGL-40m_RLatLon0.09_PT000H.grib2 2026-04-18 02:40 381K
20260418T00Z_MSC_RDPS_AirTemp_AGL-80m_RLatLon0.09_PT000H.grib2 2026-04-18 02:40 372K
20260418T00Z_MSC_RDPS_AirTemp_IsbL-0001_RLatLon0.09_PT000H.grib2 2026-04-18 02:40 290K
20260418T00Z_MSC_RDPS_AirTemp_IsbL-0005_RLatLon0.09_PT000H.grib2 2026-04-18 02:40 307K
20260418T00Z_MSC_RDPS_AirTemp_IsbL-0010_RLatLon0.09_PT000H.grib2 2026-04-18 02:40 313K
20260418T00Z_MSC_RDPS_AirTemp_IsbL-0020_RLatLon0.09_PT000H.grib2 2026-04-18 02:40 283K
20260418T00Z_MSC_RDPS_AirTemp_IsbL-0030_RLatLon0.09_PT000H.grib2 2026-04-18 02:40 337K
20260418T00Z_MSC_RDPS_AirTemp_IsbL-0050_RLatLon0.09_PT000H.grib2 2026-04-18 02:40 282K
20260418T00Z_MSC_RDPS_AirTemp_IsbL-0100_RLatLon0.09_PT000H.grib2 2026-04-18 02:40 363K
20260418T00Z_MSC_RDPS_AirTemp_IsbL-0150_RLatLon0.09_PT000H.grib2 2026-04-18 02:40 343K
20260418T00Z_MSC_RDPS_AirTemp_IsbL-0175_RLatLon0.09_PT000H.grib2 2026-04-18 02:40 346K
20260418T00Z_MSC_RDPS_AirTemp_IsbL-0200_RLatLon0.09_PT000H.grib2 2026-04-18 02:40 354K
20260418T00Z_MSC_RDPS_AirTemp_IsbL-0225_RLatLon0.09_PT000H.grib2 2026-04-18 02:40 359K
20260418T00Z_MSC_RDPS_AirTemp_IsbL-0250_RLatLon0.09_PT000H.grib2 2026-04-18 02:40 365K
20260418T00Z_MSC_RDPS_AirTemp_IsbL-0275_RLatLon0.09_PT000H.grib2 2026-04-18 02:40 352K
20260418T00Z_MSC_RDPS_AirTemp_IsbL-0300_RLatLon0.09_PT000H.grib2 2026-04-18 02:40 388K
20260418T00Z_MSC_RDPS_AirTemp_IsbL-0350_RLatLon0.09_PT000H.grib2 2026-04-18 02:40 376K
20260418T00Z_MSC_RDPS_AirTemp_IsbL-0400_RLatLon0.09_PT000H.grib2 2026-04-18 02:40 345K
20260418T00Z_MSC_RDPS_AirTemp_IsbL-0450_RLatLon0.09_PT000H.grib2 2026-04-18 02:40 350K
20260418T00Z_MSC_RDPS_AirTemp_IsbL-0500_RLatLon0.09_PT000H.grib2 2026-04-18 02:40 360K
20260418T00Z_MSC_RDPS_AirTemp_IsbL-0550_RLatLon0.09_PT000H.grib2 2026-04-18 02:40 376K
20260418T00Z_MSC_RDPS_AirTemp_IsbL-0600_RLatLon0.09_PT000H.grib2 2026-04-18 02:40 389K
20260418T00Z_MSC_RDPS_AirTemp_IsbL-0650_RLatLon0.09_PT000H.grib2 2026-04-18 02:40 310K
20260418T00Z_MSC_RDPS_AirTemp_IsbL-0700_RLatLon0.09_PT000H.grib2 2026-04-18 02:40 421K
20260418T00Z_MSC_RDPS_AirTemp_IsbL-0750_RLatLon0.09_PT000H.grib2 2026-04-18 02:40 352K
20260418T00Z_MSC_RDPS_AirTemp_IsbL-0800_RLatLon0.09_PT000H.grib2 2026-04-18 02:40 386K
20260418T00Z_MSC_RDPS_AirTemp_IsbL-0850_RLatLon0.09_PT000H.grib2 2026-04-18 02:40 424K
20260418T00Z_MSC_RDPS_AirTemp_IsbL-0875_RLatLon0.09_PT000H.grib2 2026-04-18 02:40 453K
20260418T00Z_MSC_RDPS_AirTemp_IsbL-0900_RLatLon0.09_PT000H.grib2 2026-04-18 02:40 455K
20260418T00Z_MSC_RDPS_AirTemp_IsbL-0925_RLatLon0.09_PT000H.grib2 2026-04-18 02:40 454K
20260418T00Z_MSC_RDPS_AirTemp_IsbL-0950_RLatLon0.09_PT000H.grib2 2026-04-18 02:40 455K
20260418T00Z_MSC_RDPS_AirTemp_IsbL-0970_RLatLon0.09_PT000H.grib2 2026-04-18 02:40 455K
20260418T00Z_MSC_RDPS_AirTemp_IsbL-0985_RLatLon0.09_PT000H.grib2 2026-04-18 02:40 449K
20260418T00Z_MSC_RDPS_AirTemp_IsbL-1000_RLatLon0.09_PT000H.grib2 2026-04-18 02:40 439K
20260418T00Z_MSC_RDPS_AirTemp_IsbL-1015_RLatLon0.09_PT000H.grib2 2026-04-18 02:40 435K
20260418T00Z_MSC_RDPS_Albedo_Sfc_RLatLon0.09_PT000H.grib2 2026-04-18 02:40 164K
20260418T00Z_MSC_RDPS_CAPE_Sfc_RLatLon0.09_PT000H.grib2 2026-04-18 02:40 1.7M
20260418T00Z_MSC_RDPS_CIN_Sfc_RLatLon0.09_PT000H.grib2 2026-04-18 02:40 1.3M
20260418T00Z_MSC_RDPS_CloudWater_EAtm_RLatLon0.09_PT000H.grib2 2026-04-18 02:40 194K
20260418T00Z_MSC_RDPS_DewPointDepression_AGL-2m_RLatLon0.09_PT000H.grib2 2026-04-18 02:40 318K
20260418T00Z_MSC_RDPS_DewPointDepression_IsbL-0001_RLatLon0.09_PT000H.grib2 2026-04-18 02:40 193
20260418T00Z_MSC_RDPS_DewPointDepression_IsbL-0005_RLatLon0.09_PT000H.grib2 2026-04-18 02:40 193
20260418T00Z_MSC_RDPS_DewPointDepression_IsbL-0010_RLatLon0.09_PT000H.grib2 2026-04-18 02:40 193
20260418T00Z_MSC_RDPS_DewPointDepression_IsbL-0020_RLatLon0.09_PT000H.grib2 2026-04-18 02:40 193
20260418T00Z_MSC_RDPS_DewPointDepression_IsbL-0030_RLatLon0.09_PT000H.grib2 2026-04-18 02:40 2.0K
20260418T00Z_MSC_RDPS_DewPointDepression_IsbL-0050_RLatLon0.09_PT000H.grib2 2026-04-18 02:40 95K
20260418T00Z_MSC_RDPS_DewPointDepression_IsbL-0100_RLatLon0.09_PT000H.grib2 2026-04-18 02:40 111K
20260418T00Z_MSC_RDPS_DewPointDepression_IsbL-0150_RLatLon0.09_PT000H.grib2 2026-04-18 02:40 128K
20260418T00Z_MSC_RDPS_DewPointDepression_IsbL-0175_RLatLon0.09_PT000H.grib2 2026-04-18 02:40 156K
20260418T00Z_MSC_RDPS_DewPointDepression_IsbL-0200_RLatLon0.09_PT000H.grib2 2026-04-18 02:40 185K
20260418T00Z_MSC_RDPS_DewPointDepression_IsbL-0225_RLatLon0.09_PT000H.grib2 2026-04-18 02:40 217K
20260418T00Z_MSC_RDPS_DewPointDepression_IsbL-0250_RLatLon0.09_PT000H.grib2 2026-04-18 02:40 256K
20260418T00Z_MSC_RDPS_DewPointDepression_IsbL-0275_RLatLon0.09_PT000H.grib2 2026-04-18 02:40 264K
20260418T00Z_MSC_RDPS_DewPointDepression_IsbL-0300_RLatLon0.09_PT000H.grib2 2026-04-18 02:40 278K
20260418T00Z_MSC_RDPS_DewPointDepression_IsbL-0350_RLatLon0.09_PT000H.grib2 2026-04-18 02:40 280K
20260418T00Z_MSC_RDPS_DewPointDepression_IsbL-0400_RLatLon0.09_PT000H.grib2 2026-04-18 02:40 291K
20260418T00Z_MSC_RDPS_DewPointDepression_IsbL-0450_RLatLon0.09_PT000H.grib2 2026-04-18 02:40 297K
20260418T00Z_MSC_RDPS_DewPointDepression_IsbL-0500_RLatLon0.09_PT000H.grib2 2026-04-18 02:40 304K
20260418T00Z_MSC_RDPS_DewPointDepression_IsbL-0550_RLatLon0.09_PT000H.grib2 2026-04-18 02:40 314K
20260418T00Z_MSC_RDPS_DewPointDepression_IsbL-0600_RLatLon0.09_PT000H.grib2 2026-04-18 02:40 325K
20260418T00Z_MSC_RDPS_DewPointDepression_IsbL-0650_RLatLon0.09_PT000H.grib2 2026-04-18 02:40 336K
20260418T00Z_MSC_RDPS_DewPointDepression_IsbL-0700_RLatLon0.09_PT000H.grib2 2026-04-18 02:40 344K
20260418T00Z_MSC_RDPS_DewPointDepression_IsbL-0750_RLatLon0.09_PT000H.grib2 2026-04-18 02:40 359K
20260418T00Z_MSC_RDPS_DewPointDepression_IsbL-0800_RLatLon0.09_PT000H.grib2 2026-04-18 02:40 383K
20260418T00Z_MSC_RDPS_DewPointDepression_IsbL-0850_RLatLon0.09_PT000H.grib2 2026-04-18 02:40 395K
20260418T00Z_MSC_RDPS_DewPointDepression_IsbL-0875_RLatLon0.09_PT000H.grib2 2026-04-18 02:40 387K
20260418T00Z_MSC_RDPS_DewPointDepression_IsbL-0900_RLatLon0.09_PT000H.grib2 2026-04-18 02:40 378K
20260418T00Z_MSC_RDPS_DewPointDepression_IsbL-0925_RLatLon0.09_PT000H.grib2 2026-04-18 02:40 365K
20260418T00Z_MSC_RDPS_DewPointDepression_IsbL-0950_RLatLon0.09_PT000H.grib2 2026-04-18 02:40 356K
20260418T00Z_MSC_RDPS_DewPointDepression_IsbL-0970_RLatLon0.09_PT000H.grib2 2026-04-18 02:40 350K
20260418T00Z_MSC_RDPS_DewPointDepression_IsbL-0985_RLatLon0.09_PT000H.grib2 2026-04-18 02:40 346K
20260418T00Z_MSC_RDPS_DewPointDepression_IsbL-1000_RLatLon0.09_PT000H.grib2 2026-04-18 02:40 343K
20260418T00Z_MSC_RDPS_DewPointDepression_IsbL-1015_RLatLon0.09_PT000H.grib2 2026-04-18 02:40 334K
20260418T00Z_MSC_RDPS_DewPoint_AGL-2m_RLatLon0.09_PT000H.grib2 2026-04-18 02:40 253K
20260418T00Z_MSC_RDPS_DownwardLongwaveRadiationFlux-Accum_Sfc_RLatLon0.09_PT000H.grib2 2026-04-18 02:40 217
20260418T00Z_MSC_RDPS_DownwardShortwaveRadiationFlux-Accum_NTAtm_RLatLon0.09_PT000H.grib2 2026-04-18 02:40 217
20260418T00Z_MSC_RDPS_DownwardShortwaveRadiationFlux-Accum_Sfc_RLatLon0.09_PT000H.grib2 2026-04-18 02:40 217
20260418T00Z_MSC_RDPS_GeopotentialHeight_IsbL-0001_RLatLon0.09_PT000H.grib2 2026-04-18 02:40 285K
20260418T00Z_MSC_RDPS_GeopotentialHeight_IsbL-0005_RLatLon0.09_PT000H.grib2 2026-04-18 02:40 252K
20260418T00Z_MSC_RDPS_GeopotentialHeight_IsbL-0010_RLatLon0.09_PT000H.grib2 2026-04-18 02:40 332K
20260418T00Z_MSC_RDPS_GeopotentialHeight_IsbL-0020_RLatLon0.09_PT000H.grib2 2026-04-18 02:40 362K
20260418T00Z_MSC_RDPS_GeopotentialHeight_IsbL-0030_RLatLon0.09_PT000H.grib2 2026-04-18 02:40 363K
20260418T00Z_MSC_RDPS_GeopotentialHeight_IsbL-0050_RLatLon0.09_PT000H.grib2 2026-04-18 02:40 332K
20260418T00Z_MSC_RDPS_GeopotentialHeight_IsbL-0100_RLatLon0.09_PT000H.grib2 2026-04-18 02:40 223K
20260418T00Z_MSC_RDPS_GeopotentialHeight_IsbL-0150_RLatLon0.09_PT000H.grib2 2026-04-18 02:40 262K
20260418T00Z_MSC_RDPS_GeopotentialHeight_IsbL-0175_RLatLon0.09_PT000H.grib2 2026-04-18 02:40 264K
20260418T00Z_MSC_RDPS_GeopotentialHeight_IsbL-0200_RLatLon0.09_PT000H.grib2 2026-04-18 02:40 264K
20260418T00Z_MSC_RDPS_GeopotentialHeight_IsbL-0225_RLatLon0.09_PT000H.grib2 2026-04-18 02:40 265K
20260418T00Z_MSC_RDPS_GeopotentialHeight_IsbL-0250_RLatLon0.09_PT000H.grib2 2026-04-18 02:40 266K
20260418T00Z_MSC_RDPS_GeopotentialHeight_IsbL-0275_RLatLon0.09_PT000H.grib2 2026-04-18 02:40 265K
20260418T00Z_MSC_RDPS_GeopotentialHeight_IsbL-0300_RLatLon0.09_PT000H.grib2 2026-04-18 02:40 265K
20260418T00Z_MSC_RDPS_GeopotentialHeight_IsbL-0350_RLatLon0.09_PT000H.grib2 2026-04-18 02:40 229K
20260418T00Z_MSC_RDPS_GeopotentialHeight_IsbL-0400_RLatLon0.09_PT000H.grib2 2026-04-18 02:40 228K
20260418T00Z_MSC_RDPS_GeopotentialHeight_IsbL-0450_RLatLon0.09_PT000H.grib2 2026-04-18 02:40 297K
20260418T00Z_MSC_RDPS_GeopotentialHeight_IsbL-0500_RLatLon0.09_PT000H.grib2 2026-04-18 02:40 293K
20260418T00Z_MSC_RDPS_GeopotentialHeight_IsbL-0550_RLatLon0.09_PT000H.grib2 2026-04-18 02:40 290K
20260418T00Z_MSC_RDPS_GeopotentialHeight_IsbL-0600_RLatLon0.09_PT000H.grib2 2026-04-18 02:40 288K
20260418T00Z_MSC_RDPS_GeopotentialHeight_IsbL-0650_RLatLon0.09_PT000H.grib2 2026-04-18 02:40 259K
20260418T00Z_MSC_RDPS_GeopotentialHeight_IsbL-0700_RLatLon0.09_PT000H.grib2 2026-04-18 02:40 258K
20260418T00Z_MSC_RDPS_GeopotentialHeight_IsbL-0750_RLatLon0.09_PT000H.grib2 2026-04-18 02:40 258K
20260418T00Z_MSC_RDPS_GeopotentialHeight_IsbL-0800_RLatLon0.09_PT000H.grib2 2026-04-18 02:40 261K
20260418T00Z_MSC_RDPS_GeopotentialHeight_IsbL-0850_RLatLon0.09_PT000H.grib2 2026-04-18 02:40 263K
20260418T00Z_MSC_RDPS_GeopotentialHeight_IsbL-0875_RLatLon0.09_PT000H.grib2 2026-04-18 02:40 265K
20260418T00Z_MSC_RDPS_GeopotentialHeight_IsbL-0900_RLatLon0.09_PT000H.grib2 2026-04-18 02:40 266K
20260418T00Z_MSC_RDPS_GeopotentialHeight_IsbL-0925_RLatLon0.09_PT000H.grib2 2026-04-18 02:40 351K
20260418T00Z_MSC_RDPS_GeopotentialHeight_IsbL-0950_RLatLon0.09_PT000H.grib2 2026-04-18 02:40 353K
20260418T00Z_MSC_RDPS_GeopotentialHeight_IsbL-0970_RLatLon0.09_PT000H.grib2 2026-04-18 02:40 273K
20260418T00Z_MSC_RDPS_GeopotentialHeight_IsbL-0985_RLatLon0.09_PT000H.grib2 2026-04-18 02:40 277K
20260418T00Z_MSC_RDPS_GeopotentialHeight_IsbL-1000_RLatLon0.09_PT000H.grib2 2026-04-18 02:40 370K
20260418T00Z_MSC_RDPS_GeopotentialHeight_IsbL-1015_RLatLon0.09_PT000H.grib2 2026-04-18 02:40 290K
20260418T00Z_MSC_RDPS_GeopotentialHeight_Sfc_RLatLon0.09_PT000H.grib2 2026-04-18 02:40 295K
20260418T00Z_MSC_RDPS_Humidex_Sfc_RLatLon0.09_PT000H.grib2 2026-04-18 02:40 2.2M
20260418T00Z_MSC_RDPS_KIndex_Sfc_RLatLon0.09_PT000H.grib2 2026-04-18 02:40 2.2M
20260418T00Z_MSC_RDPS_LandWaterProportion_Sfc_RLatLon0.09_PT000H.grib2 2026-04-18 02:40 156K
20260418T00Z_MSC_RDPS_LatentHeatNetFlux_Sfc_RLatLon0.09_PT000H.grib2 2026-04-18 02:40 201K
20260418T00Z_MSC_RDPS_LiftedIndex-MU-VT_IsbL-0500_RLatLon0.09_PT000H.grib2 2026-04-18 02:40 2.4M
20260418T00Z_MSC_RDPS_NetLongwaveRadiationFlux-Accum_Sfc_RLatLon0.09_PT000H.grib2 2026-04-18 02:40 217
20260418T00Z_MSC_RDPS_NetShortwaveRadiationFlux-Accum_Sfc_RLatLon0.09_PT000H.grib2 2026-04-18 02:40 217
20260418T00Z_MSC_RDPS_PlanetaryBoundaryLayerHeight_Sfc_RLatLon0.09_PT000H.grib2 2026-04-18 02:40 948K
20260418T00Z_MSC_RDPS_PrecipType-Instant_Sfc_RLatLon0.09_PT000H.grib2 2026-04-18 02:40 193
20260418T00Z_MSC_RDPS_Pressure_MSL_RLatLon0.09_PT000H.grib2 2026-04-18 02:40 315K
20260418T00Z_MSC_RDPS_Pressure_Sfc_RLatLon0.09_PT000H.grib2 2026-04-18 02:40 496K
20260418T00Z_MSC_RDPS_RadiativeTemp_Sfc_RLatLon0.09_PT000H.grib2 2026-04-18 02:40 269K
20260418T00Z_MSC_RDPS_RelativeHumidity_AGL-2m_RLatLon0.09_PT000H.grib2 2026-04-18 02:40 850K
20260418T00Z_MSC_RDPS_RelativeHumidity_IsbL-0010_RLatLon0.09_PT000H.grib2 2026-04-18 02:40 502K
20260418T00Z_MSC_RDPS_RelativeHumidity_IsbL-0020_RLatLon0.09_PT000H.grib2 2026-04-18 02:40 388K
20260418T00Z_MSC_RDPS_RelativeHumidity_IsbL-0030_RLatLon0.09_PT000H.grib2 2026-04-18 02:40 439K
20260418T00Z_MSC_RDPS_RelativeHumidity_IsbL-0050_RLatLon0.09_PT000H.grib2 2026-04-18 02:40 359K
20260418T00Z_MSC_RDPS_RelativeHumidity_IsbL-0100_RLatLon0.09_PT000H.grib2 2026-04-18 02:40 231K
20260418T00Z_MSC_RDPS_RelativeHumidity_IsbL-0150_RLatLon0.09_PT000H.grib2 2026-04-18 02:40 333K
20260418T00Z_MSC_RDPS_RelativeHumidity_IsbL-0175_RLatLon0.09_PT000H.grib2 2026-04-18 02:40 405K
20260418T00Z_MSC_RDPS_RelativeHumidity_IsbL-0200_RLatLon0.09_PT000H.grib2 2026-04-18 02:40 471K
20260418T00Z_MSC_RDPS_RelativeHumidity_IsbL-0225_RLatLon0.09_PT000H.grib2 2026-04-18 02:40 533K
20260418T00Z_MSC_RDPS_RelativeHumidity_IsbL-0250_RLatLon0.09_PT000H.grib2 2026-04-18 02:40 595K
20260418T00Z_MSC_RDPS_RelativeHumidity_IsbL-0275_RLatLon0.09_PT000H.grib2 2026-04-18 02:40 615K
20260418T00Z_MSC_RDPS_RelativeHumidity_IsbL-0300_RLatLon0.09_PT000H.grib2 2026-04-18 02:40 649K
20260418T00Z_MSC_RDPS_RelativeHumidity_IsbL-0350_RLatLon0.09_PT000H.grib2 2026-04-18 02:40 657K
20260418T00Z_MSC_RDPS_RelativeHumidity_IsbL-0400_RLatLon0.09_PT000H.grib2 2026-04-18 02:40 678K
20260418T00Z_MSC_RDPS_RelativeHumidity_IsbL-0450_RLatLon0.09_PT000H.grib2 2026-04-18 02:40 689K
20260418T00Z_MSC_RDPS_RelativeHumidity_IsbL-0500_RLatLon0.09_PT000H.grib2 2026-04-18 02:40 718K
20260418T00Z_MSC_RDPS_RelativeHumidity_IsbL-0550_RLatLon0.09_PT000H.grib2 2026-04-18 02:40 741K
20260418T00Z_MSC_RDPS_RelativeHumidity_IsbL-0600_RLatLon0.09_PT000H.grib2 2026-04-18 02:40 761K
20260418T00Z_MSC_RDPS_RelativeHumidity_IsbL-0650_RLatLon0.09_PT000H.grib2 2026-04-18 02:40 772K
20260418T00Z_MSC_RDPS_RelativeHumidity_IsbL-0700_RLatLon0.09_PT000H.grib2 2026-04-18 02:40 790K
20260418T00Z_MSC_RDPS_RelativeHumidity_IsbL-0750_RLatLon0.09_PT000H.grib2 2026-04-18 02:40 825K
20260418T00Z_MSC_RDPS_RelativeHumidity_IsbL-0800_RLatLon0.09_PT000H.grib2 2026-04-18 02:40 887K
20260418T00Z_MSC_RDPS_RelativeHumidity_IsbL-0850_RLatLon0.09_PT000H.grib2 2026-04-18 02:40 943K
20260418T00Z_MSC_RDPS_RelativeHumidity_IsbL-0875_RLatLon0.09_PT000H.grib2 2026-04-18 02:40 951K
20260418T00Z_MSC_RDPS_RelativeHumidity_IsbL-0900_RLatLon0.09_PT000H.grib2 2026-04-18 02:40 954K
20260418T00Z_MSC_RDPS_RelativeHumidity_IsbL-0925_RLatLon0.09_PT000H.grib2 2026-04-18 02:40 945K
20260418T00Z_MSC_RDPS_RelativeHumidity_IsbL-0950_RLatLon0.09_PT000H.grib2 2026-04-18 02:40 932K
20260418T00Z_MSC_RDPS_RelativeHumidity_IsbL-0970_RLatLon0.09_PT000H.grib2 2026-04-18 02:40 922K
20260418T00Z_MSC_RDPS_RelativeHumidity_IsbL-0985_RLatLon0.09_PT000H.grib2 2026-04-18 02:40 909K
20260418T00Z_MSC_RDPS_RelativeHumidity_IsbL-1000_RLatLon0.09_PT000H.grib2 2026-04-18 02:40 894K
20260418T00Z_MSC_RDPS_RelativeHumidity_IsbL-1015_RLatLon0.09_PT000H.grib2 2026-04-18 02:40 865K
20260418T00Z_MSC_RDPS_Runoff-Accum_Sfc_RLatLon0.09_PT000H.grib2 2026-04-18 02:40 193
20260418T00Z_MSC_RDPS_SWEATIndex_Sfc_RLatLon0.09_PT000H.grib2 2026-04-18 02:40 2.3M
20260418T00Z_MSC_RDPS_SeaIceFraction_Sfc_RLatLon0.09_PT000H.grib2 2026-04-18 02:40 191K
20260418T00Z_MSC_RDPS_SeaWaterTemp_Sfc_RLatLon0.09_PT000H.grib2 2026-04-18 02:40 276K
20260418T00Z_MSC_RDPS_SensibleHeatNetFlux_Sfc_RLatLon0.09_PT000H.grib2 2026-04-18 02:40 165K
20260418T00Z_MSC_RDPS_ShowalterIndex_IsbL-0500_RLatLon0.09_PT000H.grib2 2026-04-18 02:40 2.5M
20260418T00Z_MSC_RDPS_SkyTransparencyIndex_EAtm_RLatLon0.09_PT000H.grib2 2026-04-18 02:40 547K
20260418T00Z_MSC_RDPS_SnowDensity_Sfc_RLatLon0.09_PT000H.grib2 2026-04-18 02:40 170K
20260418T00Z_MSC_RDPS_SnowDepth_Sfc_RLatLon0.09_PT000H.grib2 2026-04-18 02:40 1.4M
20260418T00Z_MSC_RDPS_SoilTemp_DBS-0to10cm_RLatLon0.09_PT000H.grib2 2026-04-18 02:40 186K
20260418T00Z_MSC_RDPS_SoilTemp_Sfc_RLatLon0.09_PT000H.grib2 2026-04-18 02:40 434K
20260418T00Z_MSC_RDPS_SoilVolumetricIceContent_Sfc_RLatLon0.09_PT000H.grib2 2026-04-18 02:40 177K
20260418T00Z_MSC_RDPS_SoilVolumetricWaterContent_DBS-0to10cm_RLatLon0.09_PT000H.grib2 2026-04-18 02:40 258K
20260418T00Z_MSC_RDPS_SoilVolumetricWaterContent_DBS-0to1cm_RLatLon0.09_PT000H.grib2 2026-04-18 02:40 316K
20260418T00Z_MSC_RDPS_SpecificHumidity_AGL-120m_RLatLon0.09_PT000H.grib2 2026-04-18 02:40 410K
20260418T00Z_MSC_RDPS_SpecificHumidity_AGL-2m_RLatLon0.09_PT000H.grib2 2026-04-18 02:40 515K
20260418T00Z_MSC_RDPS_SpecificHumidity_AGL-40m_RLatLon0.09_PT000H.grib2 2026-04-18 02:40 426K
20260418T00Z_MSC_RDPS_SpecificHumidity_AGL-80m_RLatLon0.09_PT000H.grib2 2026-04-18 02:40 416K
20260418T00Z_MSC_RDPS_SpecificHumidity_IsbL-0001_RLatLon0.09_PT000H.grib2 2026-04-18 02:40 294K
20260418T00Z_MSC_RDPS_SpecificHumidity_IsbL-0005_RLatLon0.09_PT000H.grib2 2026-04-18 02:40 334K
20260418T00Z_MSC_RDPS_SpecificHumidity_IsbL-0010_RLatLon0.09_PT000H.grib2 2026-04-18 02:40 369K
20260418T00Z_MSC_RDPS_SpecificHumidity_IsbL-0020_RLatLon0.09_PT000H.grib2 2026-04-18 02:40 371K
20260418T00Z_MSC_RDPS_SpecificHumidity_IsbL-0030_RLatLon0.09_PT000H.grib2 2026-04-18 02:40 457K
20260418T00Z_MSC_RDPS_SpecificHumidity_IsbL-0050_RLatLon0.09_PT000H.grib2 2026-04-18 02:40 446K
20260418T00Z_MSC_RDPS_SpecificHumidity_IsbL-0100_RLatLon0.09_PT000H.grib2 2026-04-18 02:40 357K
20260418T00Z_MSC_RDPS_SpecificHumidity_IsbL-0150_RLatLon0.09_PT000H.grib2 2026-04-18 02:40 390K
20260418T00Z_MSC_RDPS_SpecificHumidity_IsbL-0175_RLatLon0.09_PT000H.grib2 2026-04-18 02:40 479K
20260418T00Z_MSC_RDPS_SpecificHumidity_IsbL-0200_RLatLon0.09_PT000H.grib2 2026-04-18 02:40 392K
20260418T00Z_MSC_RDPS_SpecificHumidity_IsbL-0225_RLatLon0.09_PT000H.grib2 2026-04-18 02:40 393K
20260418T00Z_MSC_RDPS_SpecificHumidity_IsbL-0250_RLatLon0.09_PT000H.grib2 2026-04-18 02:40 447K
20260418T00Z_MSC_RDPS_SpecificHumidity_IsbL-0275_RLatLon0.09_PT000H.grib2 2026-04-18 02:40 408K
20260418T00Z_MSC_RDPS_SpecificHumidity_IsbL-0300_RLatLon0.09_PT000H.grib2 2026-04-18 02:40 382K
20260418T00Z_MSC_RDPS_SpecificHumidity_IsbL-0350_RLatLon0.09_PT000H.grib2 2026-04-18 02:40 368K
20260418T00Z_MSC_RDPS_SpecificHumidity_IsbL-0400_RLatLon0.09_PT000H.grib2 2026-04-18 02:40 440K
20260418T00Z_MSC_RDPS_SpecificHumidity_IsbL-0450_RLatLon0.09_PT000H.grib2 2026-04-18 02:40 497K
20260418T00Z_MSC_RDPS_SpecificHumidity_IsbL-0500_RLatLon0.09_PT000H.grib2 2026-04-18 02:40 439K
20260418T00Z_MSC_RDPS_SpecificHumidity_IsbL-0550_RLatLon0.09_PT000H.grib2 2026-04-18 02:40 514K
20260418T00Z_MSC_RDPS_SpecificHumidity_IsbL-0600_RLatLon0.09_PT000H.grib2 2026-04-18 02:40 560K
20260418T00Z_MSC_RDPS_SpecificHumidity_IsbL-0650_RLatLon0.09_PT000H.grib2 2026-04-18 02:40 480K
20260418T00Z_MSC_RDPS_SpecificHumidity_IsbL-0700_RLatLon0.09_PT000H.grib2 2026-04-18 02:40 516K
20260418T00Z_MSC_RDPS_SpecificHumidity_IsbL-0750_RLatLon0.09_PT000H.grib2 2026-04-18 02:40 560K
20260418T00Z_MSC_RDPS_SpecificHumidity_IsbL-0800_RLatLon0.09_PT000H.grib2 2026-04-18 02:40 637K
20260418T00Z_MSC_RDPS_SpecificHumidity_IsbL-0850_RLatLon0.09_PT000H.grib2 2026-04-18 02:40 695K
20260418T00Z_MSC_RDPS_SpecificHumidity_IsbL-0875_RLatLon0.09_PT000H.grib2 2026-04-18 02:40 707K
20260418T00Z_MSC_RDPS_SpecificHumidity_IsbL-0900_RLatLon0.09_PT000H.grib2 2026-04-18 02:40 713K
20260418T00Z_MSC_RDPS_SpecificHumidity_IsbL-0925_RLatLon0.09_PT000H.grib2 2026-04-18 02:40 710K
20260418T00Z_MSC_RDPS_SpecificHumidity_IsbL-0950_RLatLon0.09_PT000H.grib2 2026-04-18 02:40 707K
20260418T00Z_MSC_RDPS_SpecificHumidity_IsbL-0970_RLatLon0.09_PT000H.grib2 2026-04-18 02:40 697K
20260418T00Z_MSC_RDPS_SpecificHumidity_IsbL-0985_RLatLon0.09_PT000H.grib2 2026-04-18 02:40 557K
20260418T00Z_MSC_RDPS_SpecificHumidity_IsbL-1000_RLatLon0.09_PT000H.grib2 2026-04-18 02:40 547K
20260418T00Z_MSC_RDPS_SpecificHumidity_IsbL-1015_RLatLon0.09_PT000H.grib2 2026-04-18 02:40 534K
20260418T00Z_MSC_RDPS_SpecificHumidity_Sfc_RLatLon0.09_PT000H.grib2 2026-04-18 02:40 553K
20260418T00Z_MSC_RDPS_StormRelativeHelicity_EtaL-10000_RLatLon0.09_PT000H.grib2 2026-04-18 02:40 1.1M
20260418T00Z_MSC_RDPS_StormSeverityIndex_EtaL-10000_RLatLon0.09_PT000H.grib2 2026-04-18 02:40 1.2M
20260418T00Z_MSC_RDPS_Thickness_IsbL-0850to0700_RLatLon0.09_PT000H.grib2 2026-04-18 02:40 167K
20260418T00Z_MSC_RDPS_Thickness_IsbL-1000to0500_RLatLon0.09_PT000H.grib2 2026-04-18 02:40 194K
20260418T00Z_MSC_RDPS_Thickness_IsbL-1000to0850_RLatLon0.09_PT000H.grib2 2026-04-18 02:40 173K
20260418T00Z_MSC_RDPS_TotalCloudCover_Sfc_RLatLon0.09_PT000H.grib2 2026-04-18 02:40 570K
20260418T00Z_MSC_RDPS_TotalTotalsIndex_Sfc_RLatLon0.09_PT000H.grib2 2026-04-18 02:40 2.2M
20260418T00Z_MSC_RDPS_UVIndex-ClearSky-Max24h_Sfc_RLatLon0.09_PT000H.grib2 2026-04-18 02:40 138K
20260418T00Z_MSC_RDPS_UVIndex-ClearSky_Sfc_RLatLon0.09_PT000H.grib2 2026-04-18 02:40 138K
20260418T00Z_MSC_RDPS_UVIndex-Max24h_Sfc_RLatLon0.09_PT000H.grib2 2026-04-18 02:40 313K
20260418T00Z_MSC_RDPS_UVIndex_Sfc_RLatLon0.09_PT000H.grib2 2026-04-18 02:40 313K
20260418T00Z_MSC_RDPS_UpwardLongwaveRadiationFlux_NTAtm_RLatLon0.09_PT000H.grib2 2026-04-18 02:40 469K
20260418T00Z_MSC_RDPS_UpwardShortwaveRadiationFlux_NTAtm_RLatLon0.09_PT000H.grib2 2026-04-18 02:40 287K
20260418T00Z_MSC_RDPS_VerticalVelocity_IsbL-0250_RLatLon0.09_PT000H.grib2 2026-04-18 02:40 403K
20260418T00Z_MSC_RDPS_VerticalVelocity_IsbL-0500_RLatLon0.09_PT000H.grib2 2026-04-18 02:40 417K
20260418T00Z_MSC_RDPS_VerticalVelocity_IsbL-0700_RLatLon0.09_PT000H.grib2 2026-04-18 02:40 476K
20260418T00Z_MSC_RDPS_VerticalVelocity_IsbL-0850_RLatLon0.09_PT000H.grib2 2026-04-18 02:40 681K
20260418T00Z_MSC_RDPS_VerticalWindShear_EtaL-6500_RLatLon0.09_PT000H.grib2 2026-04-18 02:40 1.2M
20260418T00Z_MSC_RDPS_WindChill_Sfc_RLatLon0.09_PT000H.grib2 2026-04-18 02:40 964K
20260418T00Z_MSC_RDPS_WindDir_AGL-10m_RLatLon0.09_PT000H.grib2 2026-04-18 02:40 817K
20260418T00Z_MSC_RDPS_WindDir_AGL-120m_RLatLon0.09_PT000H.grib2 2026-04-18 02:40 516K
20260418T00Z_MSC_RDPS_WindDir_AGL-40m_RLatLon0.09_PT000H.grib2 2026-04-18 02:40 543K
20260418T00Z_MSC_RDPS_WindDir_AGL-80m_RLatLon0.09_PT000H.grib2 2026-04-18 02:40 526K
20260418T00Z_MSC_RDPS_WindDir_IsbL-0001_RLatLon0.09_PT000H.grib2 2026-04-18 02:40 243K
20260418T00Z_MSC_RDPS_WindDir_IsbL-0005_RLatLon0.09_PT000H.grib2 2026-04-18 02:40 349K
20260418T00Z_MSC_RDPS_WindDir_IsbL-0010_RLatLon0.09_PT000H.grib2 2026-04-18 02:40 349K
20260418T00Z_MSC_RDPS_WindDir_IsbL-0020_RLatLon0.09_PT000H.grib2 2026-04-18 02:40 347K
20260418T00Z_MSC_RDPS_WindDir_IsbL-0030_RLatLon0.09_PT000H.grib2 2026-04-18 02:40 349K
20260418T00Z_MSC_RDPS_WindDir_IsbL-0050_RLatLon0.09_PT000H.grib2 2026-04-18 02:40 357K
20260418T00Z_MSC_RDPS_WindDir_IsbL-0100_RLatLon0.09_PT000H.grib2 2026-04-18 02:40 344K
20260418T00Z_MSC_RDPS_WindDir_IsbL-0150_RLatLon0.09_PT000H.grib2 2026-04-18 02:40 338K
20260418T00Z_MSC_RDPS_WindDir_IsbL-0175_RLatLon0.09_PT000H.grib2 2026-04-18 02:40 355K
20260418T00Z_MSC_RDPS_WindDir_IsbL-0200_RLatLon0.09_PT000H.grib2 2026-04-18 02:40 369K
20260418T00Z_MSC_RDPS_WindDir_IsbL-0225_RLatLon0.09_PT000H.grib2 2026-04-18 02:40 377K
20260418T00Z_MSC_RDPS_WindDir_IsbL-0250_RLatLon0.09_PT000H.grib2 2026-04-18 02:40 385K
20260418T00Z_MSC_RDPS_WindDir_IsbL-0275_RLatLon0.09_PT000H.grib2 2026-04-18 02:40 407K
20260418T00Z_MSC_RDPS_WindDir_IsbL-0300_RLatLon0.09_PT000H.grib2 2026-04-18 02:40 402K
20260418T00Z_MSC_RDPS_WindDir_IsbL-0350_RLatLon0.09_PT000H.grib2 2026-04-18 02:40 421K
20260418T00Z_MSC_RDPS_WindDir_IsbL-0400_RLatLon0.09_PT000H.grib2 2026-04-18 02:40 431K
20260418T00Z_MSC_RDPS_WindDir_IsbL-0450_RLatLon0.09_PT000H.grib2 2026-04-18 02:40 451K
20260418T00Z_MSC_RDPS_WindDir_IsbL-0500_RLatLon0.09_PT000H.grib2 2026-04-18 02:40 479K
20260418T00Z_MSC_RDPS_WindDir_IsbL-0550_RLatLon0.09_PT000H.grib2 2026-04-18 02:40 504K
20260418T00Z_MSC_RDPS_WindDir_IsbL-0600_RLatLon0.09_PT000H.grib2 2026-04-18 02:40 526K
20260418T00Z_MSC_RDPS_WindDir_IsbL-0650_RLatLon0.09_PT000H.grib2 2026-04-18 02:40 562K
20260418T00Z_MSC_RDPS_WindDir_IsbL-0700_RLatLon0.09_PT000H.grib2 2026-04-18 02:40 605K
20260418T00Z_MSC_RDPS_WindDir_IsbL-0750_RLatLon0.09_PT000H.grib2 2026-04-18 02:40 647K
20260418T00Z_MSC_RDPS_WindDir_IsbL-0800_RLatLon0.09_PT000H.grib2 2026-04-18 02:40 695K
20260418T00Z_MSC_RDPS_WindDir_IsbL-0850_RLatLon0.09_PT000H.grib2 2026-04-18 02:40 741K
20260418T00Z_MSC_RDPS_WindDir_IsbL-0875_RLatLon0.09_PT000H.grib2 2026-04-18 02:40 760K
20260418T00Z_MSC_RDPS_WindDir_IsbL-0900_RLatLon0.09_PT000H.grib2 2026-04-18 02:40 772K
20260418T00Z_MSC_RDPS_WindDir_IsbL-0925_RLatLon0.09_PT000H.grib2 2026-04-18 02:40 774K
20260418T00Z_MSC_RDPS_WindDir_IsbL-0950_RLatLon0.09_PT000H.grib2 2026-04-18 02:40 771K
20260418T00Z_MSC_RDPS_WindDir_IsbL-0970_RLatLon0.09_PT000H.grib2 2026-04-18 02:40 777K
20260418T00Z_MSC_RDPS_WindDir_IsbL-0985_RLatLon0.09_PT000H.grib2 2026-04-18 02:40 785K
20260418T00Z_MSC_RDPS_WindDir_IsbL-1000_RLatLon0.09_PT000H.grib2 2026-04-18 02:40 798K
20260418T00Z_MSC_RDPS_WindDir_IsbL-1015_RLatLon0.09_PT000H.grib2 2026-04-18 02:40 812K
20260418T00Z_MSC_RDPS_WindGust-Max_AGL-10m_RLatLon0.09_PT000H.grib2 2026-04-18 02:40 745K
20260418T00Z_MSC_RDPS_WindGust-Min_AGL-10m_RLatLon0.09_PT000H.grib2 2026-04-18 02:40 853K
20260418T00Z_MSC_RDPS_WindGust_AGL-10m_RLatLon0.09_PT000H.grib2 2026-04-18 02:40 858K
20260418T00Z_MSC_RDPS_WindSpeed_AGL-10m_RLatLon0.09_PT000H.grib2 2026-04-18 02:40 694K
20260418T00Z_MSC_RDPS_WindSpeed_AGL-120m_RLatLon0.09_PT000H.grib2 2026-04-18 02:40 470K
20260418T00Z_MSC_RDPS_WindSpeed_AGL-40m_RLatLon0.09_PT000H.grib2 2026-04-18 02:40 612K
20260418T00Z_MSC_RDPS_WindSpeed_AGL-80m_RLatLon0.09_PT000H.grib2 2026-04-18 02:40 481K
20260418T00Z_MSC_RDPS_WindSpeed_IsbL-0001_RLatLon0.09_PT000H.grib2 2026-04-18 02:40 283K
20260418T00Z_MSC_RDPS_WindSpeed_IsbL-0005_RLatLon0.09_PT000H.grib2 2026-04-18 02:40 319K
20260418T00Z_MSC_RDPS_WindSpeed_IsbL-0010_RLatLon0.09_PT000H.grib2 2026-04-18 02:40 327K
20260418T00Z_MSC_RDPS_WindSpeed_IsbL-0020_RLatLon0.09_PT000H.grib2 2026-04-18 02:40 338K
20260418T00Z_MSC_RDPS_WindSpeed_IsbL-0030_RLatLon0.09_PT000H.grib2 2026-04-18 02:40 294K
20260418T00Z_MSC_RDPS_WindSpeed_IsbL-0050_RLatLon0.09_PT000H.grib2 2026-04-18 02:40 319K
20260418T00Z_MSC_RDPS_WindSpeed_IsbL-0100_RLatLon0.09_PT000H.grib2 2026-04-18 02:40 416K
20260418T00Z_MSC_RDPS_WindSpeed_IsbL-0150_RLatLon0.09_PT000H.grib2 2026-04-18 02:40 316K
20260418T00Z_MSC_RDPS_WindSpeed_IsbL-0175_RLatLon0.09_PT000H.grib2 2026-04-18 02:40 364K
20260418T00Z_MSC_RDPS_WindSpeed_IsbL-0200_RLatLon0.09_PT000H.grib2 2026-04-18 02:40 380K
20260418T00Z_MSC_RDPS_WindSpeed_IsbL-0225_RLatLon0.09_PT000H.grib2 2026-04-18 02:40 389K
20260418T00Z_MSC_RDPS_WindSpeed_IsbL-0250_RLatLon0.09_PT000H.grib2 2026-04-18 02:40 396K
20260418T00Z_MSC_RDPS_WindSpeed_IsbL-0275_RLatLon0.09_PT000H.grib2 2026-04-18 02:40 409K
20260418T00Z_MSC_RDPS_WindSpeed_IsbL-0300_RLatLon0.09_PT000H.grib2 2026-04-18 02:40 406K
20260418T00Z_MSC_RDPS_WindSpeed_IsbL-0350_RLatLon0.09_PT000H.grib2 2026-04-18 02:40 412K
20260418T00Z_MSC_RDPS_WindSpeed_IsbL-0400_RLatLon0.09_PT000H.grib2 2026-04-18 02:40 392K
20260418T00Z_MSC_RDPS_WindSpeed_IsbL-0450_RLatLon0.09_PT000H.grib2 2026-04-18 02:40 391K
20260418T00Z_MSC_RDPS_WindSpeed_IsbL-0500_RLatLon0.09_PT000H.grib2 2026-04-18 02:40 498K
20260418T00Z_MSC_RDPS_WindSpeed_IsbL-0550_RLatLon0.09_PT000H.grib2 2026-04-18 02:40 500K
20260418T00Z_MSC_RDPS_WindSpeed_IsbL-0600_RLatLon0.09_PT000H.grib2 2026-04-18 02:40 510K
20260418T00Z_MSC_RDPS_WindSpeed_IsbL-0650_RLatLon0.09_PT000H.grib2 2026-04-18 02:40 527K
20260418T00Z_MSC_RDPS_WindSpeed_IsbL-0700_RLatLon0.09_PT000H.grib2 2026-04-18 02:40 546K
20260418T00Z_MSC_RDPS_WindSpeed_IsbL-0750_RLatLon0.09_PT000H.grib2 2026-04-18 02:40 568K
20260418T00Z_MSC_RDPS_WindSpeed_IsbL-0800_RLatLon0.09_PT000H.grib2 2026-04-18 02:40 608K
20260418T00Z_MSC_RDPS_WindSpeed_IsbL-0850_RLatLon0.09_PT000H.grib2 2026-04-18 02:40 651K
20260418T00Z_MSC_RDPS_WindSpeed_IsbL-0875_RLatLon0.09_PT000H.grib2 2026-04-18 02:40 666K
20260418T00Z_MSC_RDPS_WindSpeed_IsbL-0900_RLatLon0.09_PT000H.grib2 2026-04-18 02:40 679K
20260418T00Z_MSC_RDPS_WindSpeed_IsbL-0925_RLatLon0.09_PT000H.grib2 2026-04-18 02:40 686K
20260418T00Z_MSC_RDPS_WindSpeed_IsbL-0950_RLatLon0.09_PT000H.grib2 2026-04-18 02:40 731K
20260418T00Z_MSC_RDPS_WindSpeed_IsbL-0970_RLatLon0.09_PT000H.grib2 2026-04-18 02:40 722K
20260418T00Z_MSC_RDPS_WindSpeed_IsbL-0985_RLatLon0.09_PT000H.grib2 2026-04-18 02:40 716K
20260418T00Z_MSC_RDPS_WindSpeed_IsbL-1000_RLatLon0.09_PT000H.grib2 2026-04-18 02:40 712K
20260418T00Z_MSC_RDPS_WindSpeed_IsbL-1015_RLatLon0.09_PT000H.grib2 2026-04-18 02:40 699K
20260418T00Z_MSC_RDPS_WindU_AGL-10m_RLatLon0.09_PT000H.grib2 2026-04-18 02:40 357K
20260418T00Z_MSC_RDPS_WindU_AGL-120m_RLatLon0.09_PT000H.grib2 2026-04-18 02:40 366K
20260418T00Z_MSC_RDPS_WindU_AGL-40m_RLatLon0.09_PT000H.grib2 2026-04-18 02:40 486K
20260418T00Z_MSC_RDPS_WindU_AGL-80m_RLatLon0.09_PT000H.grib2 2026-04-18 02:40 478K
20260418T00Z_MSC_RDPS_WindU_IsbL-0001_RLatLon0.09_PT000H.grib2 2026-04-18 02:40 256K
20260418T00Z_MSC_RDPS_WindU_IsbL-0005_RLatLon0.09_PT000H.grib2 2026-04-18 02:40 312K
20260418T00Z_MSC_RDPS_WindU_IsbL-0010_RLatLon0.09_PT000H.grib2 2026-04-18 02:40 229K
20260418T00Z_MSC_RDPS_WindU_IsbL-0020_RLatLon0.09_PT000H.grib2 2026-04-18 02:40 303K
20260418T00Z_MSC_RDPS_WindU_IsbL-0030_RLatLon0.09_PT000H.grib2 2026-04-18 02:40 235K
20260418T00Z_MSC_RDPS_WindU_IsbL-0050_RLatLon0.09_PT000H.grib2 2026-04-18 02:40 322K
20260418T00Z_MSC_RDPS_WindU_IsbL-0100_RLatLon0.09_PT000H.grib2 2026-04-18 02:40 292K
20260418T00Z_MSC_RDPS_WindU_IsbL-0150_RLatLon0.09_PT000H.grib2 2026-04-18 02:40 341K
20260418T00Z_MSC_RDPS_WindU_IsbL-0175_RLatLon0.09_PT000H.grib2 2026-04-18 02:40 361K
20260418T00Z_MSC_RDPS_WindU_IsbL-0200_RLatLon0.09_PT000H.grib2 2026-04-18 02:40 376K
20260418T00Z_MSC_RDPS_WindU_IsbL-0225_RLatLon0.09_PT000H.grib2 2026-04-18 02:40 384K
20260418T00Z_MSC_RDPS_WindU_IsbL-0250_RLatLon0.09_PT000H.grib2 2026-04-18 02:40 387K
20260418T00Z_MSC_RDPS_WindU_IsbL-0275_RLatLon0.09_PT000H.grib2 2026-04-18 02:40 310K
20260418T00Z_MSC_RDPS_WindU_IsbL-0300_RLatLon0.09_PT000H.grib2 2026-04-18 02:40 306K
20260418T00Z_MSC_RDPS_WindU_IsbL-0350_RLatLon0.09_PT000H.grib2 2026-04-18 02:40 311K
20260418T00Z_MSC_RDPS_WindU_IsbL-0400_RLatLon0.09_PT000H.grib2 2026-04-18 02:40 402K
20260418T00Z_MSC_RDPS_WindU_IsbL-0450_RLatLon0.09_PT000H.grib2 2026-04-18 02:40 401K
20260418T00Z_MSC_RDPS_WindU_IsbL-0500_RLatLon0.09_PT000H.grib2 2026-04-18 02:40 405K
20260418T00Z_MSC_RDPS_WindU_IsbL-0550_RLatLon0.09_PT000H.grib2 2026-04-18 02:40 408K
20260418T00Z_MSC_RDPS_WindU_IsbL-0600_RLatLon0.09_PT000H.grib2 2026-04-18 02:40 415K
20260418T00Z_MSC_RDPS_WindU_IsbL-0650_RLatLon0.09_PT000H.grib2 2026-04-18 02:40 429K
20260418T00Z_MSC_RDPS_WindU_IsbL-0700_RLatLon0.09_PT000H.grib2 2026-04-18 02:40 445K
20260418T00Z_MSC_RDPS_WindU_IsbL-0750_RLatLon0.09_PT000H.grib2 2026-04-18 02:40 444K
20260418T00Z_MSC_RDPS_WindU_IsbL-0800_RLatLon0.09_PT000H.grib2 2026-04-18 02:40 494K
20260418T00Z_MSC_RDPS_WindU_IsbL-0850_RLatLon0.09_PT000H.grib2 2026-04-18 02:40 527K
20260418T00Z_MSC_RDPS_WindU_IsbL-0875_RLatLon0.09_PT000H.grib2 2026-04-18 02:40 538K
20260418T00Z_MSC_RDPS_WindU_IsbL-0900_RLatLon0.09_PT000H.grib2 2026-04-18 02:40 547K
20260418T00Z_MSC_RDPS_WindU_IsbL-0925_RLatLon0.09_PT000H.grib2 2026-04-18 02:40 550K
20260418T00Z_MSC_RDPS_WindU_IsbL-0950_RLatLon0.09_PT000H.grib2 2026-04-18 02:40 536K
20260418T00Z_MSC_RDPS_WindU_IsbL-0970_RLatLon0.09_PT000H.grib2 2026-04-18 02:40 534K
20260418T00Z_MSC_RDPS_WindU_IsbL-0985_RLatLon0.09_PT000H.grib2 2026-04-18 02:40 657K
20260418T00Z_MSC_RDPS_WindU_IsbL-1000_RLatLon0.09_PT000H.grib2 2026-04-18 02:40 697K
20260418T00Z_MSC_RDPS_WindU_IsbL-1015_RLatLon0.09_PT000H.grib2 2026-04-18 02:40 685K
20260418T00Z_MSC_RDPS_WindV_AGL-10m_RLatLon0.09_PT000H.grib2 2026-04-18 02:40 355K
20260418T00Z_MSC_RDPS_WindV_AGL-120m_RLatLon0.09_PT000H.grib2 2026-04-18 02:40 465K
20260418T00Z_MSC_RDPS_WindV_AGL-40m_RLatLon0.09_PT000H.grib2 2026-04-18 02:40 481K
20260418T00Z_MSC_RDPS_WindV_AGL-80m_RLatLon0.09_PT000H.grib2 2026-04-18 02:40 473K
20260418T00Z_MSC_RDPS_WindV_IsbL-0001_RLatLon0.09_PT000H.grib2 2026-04-18 02:40 257K
20260418T00Z_MSC_RDPS_WindV_IsbL-0005_RLatLon0.09_PT000H.grib2 2026-04-18 02:40 284K
20260418T00Z_MSC_RDPS_WindV_IsbL-0010_RLatLon0.09_PT000H.grib2 2026-04-18 02:40 318K
20260418T00Z_MSC_RDPS_WindV_IsbL-0020_RLatLon0.09_PT000H.grib2 2026-04-18 02:40 330K
20260418T00Z_MSC_RDPS_WindV_IsbL-0030_RLatLon0.09_PT000H.grib2 2026-04-18 02:40 330K
20260418T00Z_MSC_RDPS_WindV_IsbL-0050_RLatLon0.09_PT000H.grib2 2026-04-18 02:40 312K
20260418T00Z_MSC_RDPS_WindV_IsbL-0100_RLatLon0.09_PT000H.grib2 2026-04-18 02:40 287K
20260418T00Z_MSC_RDPS_WindV_IsbL-0150_RLatLon0.09_PT000H.grib2 2026-04-18 02:40 337K
20260418T00Z_MSC_RDPS_WindV_IsbL-0175_RLatLon0.09_PT000H.grib2 2026-04-18 02:40 359K
20260418T00Z_MSC_RDPS_WindV_IsbL-0200_RLatLon0.09_PT000H.grib2 2026-04-18 02:40 290K
20260418T00Z_MSC_RDPS_WindV_IsbL-0225_RLatLon0.09_PT000H.grib2 2026-04-18 02:40 297K
20260418T00Z_MSC_RDPS_WindV_IsbL-0250_RLatLon0.09_PT000H.grib2 2026-04-18 02:40 300K
20260418T00Z_MSC_RDPS_WindV_IsbL-0275_RLatLon0.09_PT000H.grib2 2026-04-18 02:40 309K
20260418T00Z_MSC_RDPS_WindV_IsbL-0300_RLatLon0.09_PT000H.grib2 2026-04-18 02:40 306K
20260418T00Z_MSC_RDPS_WindV_IsbL-0350_RLatLon0.09_PT000H.grib2 2026-04-18 02:40 310K
20260418T00Z_MSC_RDPS_WindV_IsbL-0400_RLatLon0.09_PT000H.grib2 2026-04-18 02:40 311K
20260418T00Z_MSC_RDPS_WindV_IsbL-0450_RLatLon0.09_PT000H.grib2 2026-04-18 02:40 400K
20260418T00Z_MSC_RDPS_WindV_IsbL-0500_RLatLon0.09_PT000H.grib2 2026-04-18 02:40 403K
20260418T00Z_MSC_RDPS_WindV_IsbL-0550_RLatLon0.09_PT000H.grib2 2026-04-18 02:40 406K
20260418T00Z_MSC_RDPS_WindV_IsbL-0600_RLatLon0.09_PT000H.grib2 2026-04-18 02:40 414K
20260418T00Z_MSC_RDPS_WindV_IsbL-0650_RLatLon0.09_PT000H.grib2 2026-04-18 02:40 405K
20260418T00Z_MSC_RDPS_WindV_IsbL-0700_RLatLon0.09_PT000H.grib2 2026-04-18 02:40 422K
20260418T00Z_MSC_RDPS_WindV_IsbL-0750_RLatLon0.09_PT000H.grib2 2026-04-18 02:40 441K
20260418T00Z_MSC_RDPS_WindV_IsbL-0800_RLatLon0.09_PT000H.grib2 2026-04-18 02:40 472K
20260418T00Z_MSC_RDPS_WindV_IsbL-0850_RLatLon0.09_PT000H.grib2 2026-04-18 02:40 507K
20260418T00Z_MSC_RDPS_WindV_IsbL-0875_RLatLon0.09_PT000H.grib2 2026-04-18 02:40 520K
20260418T00Z_MSC_RDPS_WindV_IsbL-0900_RLatLon0.09_PT000H.grib2 2026-04-18 02:40 531K
20260418T00Z_MSC_RDPS_WindV_IsbL-0925_RLatLon0.09_PT000H.grib2 2026-04-18 02:40 535K
20260418T00Z_MSC_RDPS_WindV_IsbL-0950_RLatLon0.09_PT000H.grib2 2026-04-18 02:40 662K
20260418T00Z_MSC_RDPS_WindV_IsbL-0970_RLatLon0.09_PT000H.grib2 2026-04-18 02:40 659K
20260418T00Z_MSC_RDPS_WindV_IsbL-0985_RLatLon0.09_PT000H.grib2 2026-04-18 02:40 652K
20260418T00Z_MSC_RDPS_WindV_IsbL-1000_RLatLon0.09_PT000H.grib2 2026-04-18 02:40 691K
20260418T00Z_MSC_RDPS_WindV_IsbL-1015_RLatLon0.09_PT000H.grib2 2026-04-18 02:40 680K